Time;durP1;ratioP1;P1;durP2;ratioP2;P2;SDS_P1;SDS_P2;PMS_P1;PMS_P2;Temp;Humidity;BMP_temperature;BMP_pressure;BME280_temperature;BME280_humidity;BME280_pressure;Samples;Min_cycle;Max_cycle;Signal;HPM_P1;HPM_P2
2023/03/13 00:00:45;;;;;;;7.07;2.50;;;6.10;99.90;;;;;;5010137;28;20459;-72
2023/03/13 00:03:10;;;;;;;8.00;3.30;;;6.10;99.90;;;;;;5011109;28;20186;-72
2023/03/13 00:05:36;;;;;;;8.00;3.27;;;6.10;99.90;;;;;;5011055;28;20271;-72
2023/03/13 00:08:01;;;;;;;13.90;3.80;;;6.10;99.90;;;;;;5010850;28;20240;-72
2023/03/13 00:10:27;;;;;;;3.50;2.30;;;6.00;99.90;;;;;;5009405;28;20683;-72
2023/03/13 00:12:52;;;;;;;5.97;3.40;;;6.10;99.90;;;;;;5010314;28;20234;-72
2023/03/13 00:15:18;;;;;;;5.20;2.80;;;6.10;99.90;;;;;;5010539;28;20178;-74
2023/03/13 00:17:43;;;;;;;5.20;2.70;;;6.10;99.90;;;;;;5010538;28;20730;-72
2023/03/13 00:20:10;;;;;;;9.33;3.20;;;6.10;99.90;;;;;;5011178;28;20507;-73
2023/03/13 00:22:35;;;;;;;9.63;3.37;;;6.10;99.90;;;;;;5010274;28;20672;-72
2023/03/13 00:25:01;;;;;;;7.60;3.20;;;6.10;99.90;;;;;;5010845;28;20425;-73
2023/03/13 00:27:26;;;;;;;15.90;3.00;;;6.10;99.90;;;;;;5011315;28;20231;-72
2023/03/13 00:29:51;;;;;;;8.63;3.53;;;6.00;99.90;;;;;;5015001;28;20188;-72
2023/03/13 00:32:17;;;;;;;10.57;3.37;;;6.10;99.90;;;;;;5014535;28;20228;-74
2023/03/13 00:34:42;;;;;;;6.83;2.47;;;6.10;99.90;;;;;;5014695;28;20267;-72
2023/03/13 00:37:08;;;;;;;8.87;3.67;;;6.10;99.90;;;;;;5007289;28;20262;-73
2023/03/13 00:39:33;;;;;;;9.93;3.30;;;6.20;99.90;;;;;;5014476;28;20231;-72
2023/03/13 00:42:02;;;;;;;7.00;3.37;;;6.20;99.90;;;;;;5014403;28;20258;-72
2023/03/13 00:44:28;;;;;;;12.53;5.23;;;6.20;99.90;;;;;;5014619;28;20236;-73
2023/03/13 00:46:54;;;;;;;19.10;4.03;;;6.30;99.90;;;;;;5009467;28;20893;-73
2023/03/13 00:49:19;;;;;;;6.47;3.30;;;6.30;99.90;;;;;;5004641;28;20432;-71
2023/03/13 00:51:45;;;;;;;9.33;4.20;;;6.40;99.90;;;;;;5008589;28;20606;-72
2023/03/13 00:54:10;;;;;;;8.43;3.00;;;6.40;99.90;;;;;;5010219;28;20266;-74
2023/03/13 00:56:36;;;;;;;7.60;3.10;;;6.40;99.90;;;;;;5013642;28;20181;-73
2023/03/13 00:59:01;;;;;;;10.60;3.30;;;6.50;99.90;;;;;;5013778;28;20169;-72
2023/03/13 01:01:30;;;;;;;9.53;2.80;;;6.50;99.90;;;;;;5013900;28;20664;-73
2023/03/13 01:03:58;;;;;;;7.73;3.07;;;6.60;99.90;;;;;;5014611;28;20186;-73
2023/03/13 01:06:27;;;;;;;12.63;3.23;;;6.70;99.90;;;;;;5014638;28;20410;-73
2023/03/13 01:08:53;;;;;;;12.63;3.40;;;6.70;99.90;;;;;;5014430;28;20420;-73
2023/03/13 01:11:30;;;;;;;12.70;2.80;;;6.90;99.90;;;;;;5014182;28;20442;-73
2023/03/13 01:14:07;;;;;;;12.00;3.43;;;7.00;99.90;;;;;;5014330;28;20499;-73
2023/03/13 01:16:34;;;;;;;13.30;3.50;;;7.10;99.90;;;;;;5013865;28;20432;-73
2023/03/13 01:19:02;;;;;;;11.33;3.70;;;7.30;99.90;;;;;;5014240;28;20418;-73
2023/03/13 01:21:29;;;;;;;19.97;3.33;;;7.40;99.90;;;;;;5013373;28;20532;-74
2023/03/13 01:23:55;;;;;;;14.80;5.33;;;7.30;99.90;;;;;;5014068;28;20422;-73
2023/03/13 01:26:21;;;;;;;7.20;3.07;;;7.40;99.90;;;;;;5014174;28;20428;-73
2023/03/13 01:28:47;;;;;;;9.63;4.37;;;7.40;99.90;;;;;;5013541;28;20416;-73
2023/03/13 01:31:20;;;;;;;9.03;3.03;;;7.40;99.90;;;;;;5013614;28;20516;-73
2023/03/13 01:33:47;;;;;;;11.20;3.63;;;7.40;99.90;;;;;;5013459;28;20473;-73
2023/03/13 01:36:13;;;;;;;13.43;3.13;;;7.30;99.90;;;;;;5013989;28;20423;-72
2023/03/13 01:38:39;;;;;;;15.73;2.73;;;7.30;99.90;;;;;;5013269;28;20411;-76
2023/03/13 01:41:06;;;;;;;10.70;3.00;;;7.20;99.90;;;;;;5013829;28;20589;-75
2023/03/13 01:43:34;;;;;;;14.70;3.00;;;7.30;99.90;;;;;;5013476;28;20179;-73
2023/03/13 01:46:06;;;;;;;7.67;2.83;;;7.30;99.90;;;;;;5008708;28;20411;-73
2023/03/13 01:48:49;;;;;;;13.53;3.20;;;7.30;99.90;;;;;;5012958;28;20446;-74
2023/03/13 01:51:24;;;;;;;13.03;3.17;;;7.30;99.90;;;;;;5013778;28;20438;-73
2023/03/13 01:53:59;;;;;;;10.13;2.87;;;7.30;99.90;;;;;;5012862;28;20457;-72
2023/03/13 01:56:31;;;;;;;8.20;2.80;;;7.30;99.90;;;;;;5013346;28;20765;-73
2023/03/13 01:58:58;;;;;;;10.83;3.17;;;7.30;99.90;;;;;;4999105;28;20432;-74
2023/03/13 03:32:00;;;;;;;9.20;1.57;;;8.80;99.90;;;;;;5368762;22;20515;-73
2023/03/13 03:34:26;;;;;;;4.57;1.10;;;8.90;99.90;;;;;;5026115;28;20552;-71
2023/03/13 03:36:51;;;;;;;4.67;1.10;;;8.90;99.90;;;;;;5014363;28;20196;-72
2023/03/13 03:39:17;;;;;;;6.83;1.10;;;8.90;99.90;;;;;;5022970;28;20186;-72
2023/03/13 03:41:42;;;;;;;5.27;1.50;;;8.90;99.90;;;;;;5011517;28;20213;-72
2023/03/13 03:44:08;;;;;;;1.90;0.90;;;8.90;99.90;;;;;;5011172;28;20650;-72
2023/03/13 03:46:33;;;;;;;3.23;1.37;;;8.90;99.90;;;;;;5010643;28;20205;-73
2023/03/13 03:48:59;;;;;;;5.23;1.47;;;8.90;99.90;;;;;;5010732;28;20208;-72
2023/03/13 03:51:24;;;;;;;3.13;0.90;;;8.90;99.90;;;;;;5010995;28;20772;-72
2023/03/13 03:53:50;;;;;;;6.10;1.20;;;8.90;99.90;;;;;;5010525;28;20216;-72
2023/03/13 03:56:15;;;;;;;4.50;1.63;;;8.90;99.90;;;;;;5010981;28;20186;-73
2023/03/13 03:58:41;;;;;;;6.43;1.40;;;9.00;99.90;;;;;;5010415;28;20193;-72
2023/03/13 04:01:06;;;;;;;3.77;1.03;;;9.00;99.90;;;;;;5009997;28;20212;-72
2023/03/13 04:03:32;;;;;;;3.10;1.83;;;9.10;99.90;;;;;;5009685;28;20194;-73
2023/03/13 04:05:58;;;;;;;1.90;1.17;;;9.10;99.90;;;;;;5010916;28;20196;-73
2023/03/13 04:08:25;;;;;;;5.93;0.93;;;9.10;99.90;;;;;;5010733;28;20800;-72
2023/03/13 04:10:51;;;;;;;0.70;0.70;;;9.40;99.90;;;;;;5010382;28;20209;-73
2023/03/13 04:13:16;;;;;;;0.60;0.50;;;9.60;99.90;;;;;;5010666;28;20555;-73
2023/03/13 04:15:42;;;;;;;2.73;0.70;;;9.80;99.90;;;;;;5010383;28;20629;-72
2023/03/13 04:18:07;;;;;;;4.63;0.70;;;10.10;99.90;;;;;;5010585;28;20686;-72
2023/03/13 04:20:33;;;;;;;1.53;0.60;;;10.40;99.90;;;;;;5010354;28;20538;-72
2023/03/13 04:22:59;;;;;;;2.43;0.60;;;10.70;99.90;;;;;;5010349;28;20325;-72
2023/03/13 04:25:24;;;;;;;2.03;0.70;;;10.80;99.90;;;;;;5010754;28;20938;-71
2023/03/13 04:27:50;;;;;;;2.20;0.50;;;11.00;99.90;;;;;;5008910;28;20269;-72
2023/03/13 04:30:16;;;;;;;3.13;0.80;;;11.10;99.90;;;;;;5010652;28;20204;-73
2023/03/13 04:32:41;;;;;;;1.80;0.87;;;11.10;99.90;;;;;;5009530;28;20222;-72
2023/03/13 04:35:07;;;;;;;1.00;0.60;;;11.20;99.90;;;;;;5006494;28;20190;-72
2023/03/13 04:37:32;;;;;;;2.00;0.60;;;11.30;99.90;;;;;;4999769;28;20202;-72
2023/03/13 04:39:58;;;;;;;1.00;0.60;;;11.40;99.90;;;;;;5010369;28;20555;-73
2023/03/13 04:42:23;;;;;;;1.00;0.90;;;11.50;99.90;;;;;;5010343;28;20215;-72
2023/03/13 04:44:49;;;;;;;2.60;1.93;;;11.50;99.90;;;;;;5009921;28;20194;-73
2023/03/13 04:47:14;;;;;;;5.83;5.10;;;11.60;99.90;;;;;;5010307;28;20204;-73
2023/03/13 04:49:40;;;;;;;1.37;1.00;;;11.60;99.90;;;;;;5009777;28;20195;-72
2023/03/13 04:52:06;;;;;;;5.90;1.63;;;11.60;99.90;;;;;;5010310;28;20532;-73
2023/03/13 04:54:31;;;;;;;188.83;39.87;;;11.60;99.90;;;;;;5010018;28;20264;-72
2023/03/13 04:56:57;;;;;;;1.50;1.00;;;11.70;99.90;;;;;;5010173;28;20265;-69
2023/03/13 04:59:22;;;;;;;2.63;1.07;;;11.70;99.90;;;;;;5010398;28;20191;-72
2023/03/13 05:01:48;;;;;;;140.07;77.03;;;11.70;99.90;;;;;;5009580;28;20541;-71
2023/03/13 05:04:13;;;;;;;19.60;0.90;;;11.70;99.90;;;;;;5010181;28;20199;-72
2023/03/13 05:06:39;;;;;;;1999.90;999.90;;;11.60;99.90;;;;;;5009750;28;20195;-73
2023/03/13 05:09:05;;;;;;;1.57;0.60;;;11.70;99.90;;;;;;5010335;28;20190;-72
2023/03/13 05:11:30;;;;;;;0.93;0.60;;;11.70;99.90;;;;;;5009793;28;20214;-72
2023/03/13 05:13:56;;;;;;;1.47;0.50;;;11.70;99.90;;;;;;5011443;28;20215;-72
2023/03/13 05:16:21;;;;;;;3.40;0.77;;;11.80;99.90;;;;;;5013812;28;20194;-70
2023/03/13 05:18:47;;;;;;;0.90;0.70;;;11.80;99.90;;;;;;5013031;28;20679;-71
2023/03/13 05:21:12;;;;;;;2.37;1.10;;;11.80;99.90;;;;;;5013358;28;20210;-72
2023/03/13 05:23:38;;;;;;;6.93;0.80;;;11.80;99.90;;;;;;5012999;28;20595;-72
2023/03/13 05:26:03;;;;;;;99.33;10.03;;;11.80;99.90;;;;;;5013619;28;20190;-72
2023/03/13 05:28:29;;;;;;;10.53;0.90;;;11.80;99.90;;;;;;5013041;28;20561;-71
2023/03/13 05:30:54;;;;;;;16.00;0.93;;;11.80;99.90;;;;;;5013079;28;20358;-71
2023/03/13 05:33:20;;;;;;;16.23;0.80;;;11.80;99.90;;;;;;5012045;28;20305;-71
2023/03/13 05:35:46;;;;;;;17.00;0.83;;;11.80;99.90;;;;;;5012917;28;20198;-72
2023/03/13 05:38:12;;;;;;;9.40;0.70;;;11.80;99.90;;;;;;5013221;28;20190;-72
2023/03/13 05:40:38;;;;;;;11.57;0.60;;;11.90;99.90;;;;;;5012736;28;20588;-70
2023/03/13 05:43:03;;;;;;;12.03;0.60;;;11.80;99.90;;;;;;5013000;28;20442;-72
2023/03/13 05:45:29;;;;;;;13.63;0.80;;;11.80;99.90;;;;;;5012854;28;20269;-71
2023/03/13 05:47:55;;;;;;;15.73;0.70;;;11.80;99.90;;;;;;5013275;28;20282;-72
2023/03/13 05:50:20;;;;;;;5.53;0.80;;;11.80;99.90;;;;;;5013300;28;20666;-73
2023/03/13 05:52:46;;;;;;;6.20;0.60;;;11.80;99.90;;;;;;5012713;28;20234;-72
2023/03/13 05:55:12;;;;;;;2.30;0.60;;;11.80;99.90;;;;;;5013205;28;20190;-72
2023/03/13 05:57:38;;;;;;;0.80;0.50;;;11.80;99.90;;;;;;5012506;28;20187;-72
2023/03/13 06:00:04;;;;;;;0.60;0.50;;;11.90;99.90;;;;;;5012861;28;20507;-72
2023/03/13 06:02:29;;;;;;;2.03;0.80;;;11.90;99.90;;;;;;5012287;28;20476;-71
2023/03/13 06:04:55;;;;;;;2.17;0.70;;;11.90;99.90;;;;;;5012699;28;20461;-73
2023/03/13 06:07:20;;;;;;;0.90;0.53;;;11.90;99.90;;;;;;5012709;28;20206;-71
2023/03/13 06:09:46;;;;;;;1.20;0.60;;;11.90;99.90;;;;;;5012226;28;20191;-72
2023/03/13 06:12:11;;;;;;;0.70;0.50;;;11.90;99.90;;;;;;5012549;28;20202;-72
2023/03/13 06:14:37;;;;;;;0.70;0.50;;;12.00;99.90;;;;;;5000858;28;20245;-72
2023/03/13 06:17:04;;;;;;;5.27;0.80;;;12.00;99.90;;;;;;4992110;28;20219;-72
2023/03/13 06:19:30;;;;;;;1.53;0.43;;;12.00;99.90;;;;;;4993981;28;20183;-71
2023/03/13 06:21:55;;;;;;;1.80;0.70;;;12.00;99.90;;;;;;5004079;28;20598;-73
2023/03/13 06:24:21;;;;;;;2.13;0.50;;;12.10;99.90;;;;;;4995121;28;20198;-73
2023/03/13 06:26:48;;;;;;;0.63;0.50;;;12.20;99.90;;;;;;4995426;28;20198;-73
2023/03/13 06:29:14;;;;;;;6.13;0.60;;;12.20;99.90;;;;;;5010988;28;20929;-73
2023/03/13 06:31:40;;;;;;;3.13;0.60;;;12.30;99.90;;;;;;5011008;28;20457;-72
2023/03/13 06:34:05;;;;;;;2.67;0.60;;;12.30;99.90;;;;;;5011975;28;20753;-73
2023/03/13 06:36:31;;;;;;;5.83;0.50;;;12.40;99.90;;;;;;5011118;28;20541;-70
2023/03/13 06:38:56;;;;;;;3.00;0.60;;;12.40;99.90;;;;;;5011478;28;20669;-72
2023/03/13 06:41:22;;;;;;;3.30;0.70;;;12.50;99.90;;;;;;5012026;28;20552;-72
2023/03/13 06:43:47;;;;;;;8.70;0.60;;;12.50;99.90;;;;;;5011695;28;20197;-72
2023/03/13 06:46:19;;;;;;;14.53;0.80;;;12.50;99.90;;;;;;5012187;28;20200;-73
2023/03/13 06:48:45;;;;;;;10.30;0.60;;;12.50;99.90;;;;;;5011656;28;20693;-73
2023/03/13 06:51:12;;;;;;;7.27;0.60;;;12.50;99.90;;;;;;5010401;28;20461;-72
2023/03/13 06:53:37;;;;;;;3.43;0.60;;;12.50;99.90;;;;;;5011425;28;20214;-73
2023/03/13 06:56:03;;;;;;;3.33;0.60;;;12.50;99.90;;;;;;5011898;28;20429;-73
2023/03/13 06:58:29;;;;;;;4.40;0.60;;;12.50;99.90;;;;;;5011456;28;20569;-73
2023/03/13 07:00:54;;;;;;;4.47;0.50;;;12.50;99.90;;;;;;5011469;28;20215;-73
2023/03/13 07:03:20;;;;;;;3.83;0.80;;;12.50;99.90;;;;;;5011807;28;20247;-73
2023/03/13 07:05:45;;;;;;;5.33;0.60;;;12.50;99.90;;;;;;5011518;28;20202;-72
2023/03/13 07:08:11;;;;;;;3.10;0.57;;;12.50;99.90;;;;;;5011654;28;20208;-73
2023/03/13 07:10:36;;;;;;;6.07;0.70;;;12.50;99.90;;;;;;5010990;28;20256;-71
2023/03/13 07:13:02;;;;;;;3.57;0.50;;;12.50;99.90;;;;;;5011422;28;20727;-72
2023/03/13 07:15:27;;;;;;;4.10;0.50;;;12.60;99.90;;;;;;5011539;28;20227;-71
2023/03/13 07:17:56;;;;;;;3.83;0.50;;;12.60;99.90;;;;;;5012648;28;20191;-73
2023/03/13 07:20:21;;;;;;;3.00;0.50;;;12.60;99.90;;;;;;5011483;28;20179;-72
2023/03/13 07:22:52;;;;;;;2.30;0.50;;;12.60;99.90;;;;;;5011102;28;20433;-73
2023/03/13 07:25:17;;;;;;;1.50;0.60;;;12.60;99.90;;;;;;5010344;28;20190;-73
2023/03/13 07:27:43;;;;;;;3.17;0.67;;;12.60;99.90;;;;;;5010896;28;20433;-73
2023/03/13 07:30:09;;;;;;;1.47;0.70;;;12.60;99.90;;;;;;5011167;28;20205;-72
2023/03/13 07:32:34;;;;;;;1.57;0.70;;;12.60;99.90;;;;;;5009795;28;20226;-72
2023/03/13 07:35:02;;;;;;;2.37;0.50;;;12.60;99.90;;;;;;5011150;28;20434;-73
2023/03/13 07:37:27;;;;;;;2.40;0.60;;;12.60;99.90;;;;;;5010665;28;20202;-71
2023/03/13 07:39:53;;;;;;;2.50;0.60;;;12.60;99.90;;;;;;4994947;28;20462;-72
2023/03/13 07:42:18;;;;;;;0.87;0.50;;;12.60;99.90;;;;;;5010884;28;20670;-73
2023/03/13 07:44:44;;;;;;;0.70;0.57;;;12.60;99.90;;;;;;5010542;28;20213;-72
2023/03/13 07:47:09;;;;;;;0.93;0.60;;;12.60;99.90;;;;;;5011055;28;20183;-72
2023/03/13 07:49:40;;;;;;;0.80;0.50;;;12.70;99.90;;;;;;5010575;28;20558;-73
2023/03/13 07:52:05;;;;;;;0.70;0.47;;;12.70;99.90;;;;;;5009993;28;20221;-71
2023/03/13 07:54:31;;;;;;;1.00;0.60;;;12.80;99.90;;;;;;4994273;28;21004;-71
2023/03/13 07:56:56;;;;;;;1.80;0.50;;;12.80;99.90;;;;;;5008333;28;20194;-73
2023/03/13 07:59:22;;;;;;;1.30;0.80;;;12.90;99.90;;;;;;4993819;28;20206;-72
2023/03/13 08:01:47;;;;;;;1.40;0.50;;;12.90;99.90;;;;;;4994891;28;20206;-72
2023/03/13 08:04:13;;;;;;;1.20;0.50;;;13.00;99.90;;;;;;4998740;28;20193;-71
2023/03/13 08:06:39;;;;;;;3.70;0.60;;;13.10;99.90;;;;;;5010427;28;20186;-73
2023/03/13 08:09:05;;;;;;;5.13;1.00;;;13.20;99.90;;;;;;5010938;28;20187;-73
2023/03/13 08:11:31;;;;;;;1.80;0.50;;;13.30;99.90;;;;;;5010077;28;20449;-73
2023/03/13 08:13:57;;;;;;;1.27;0.63;;;13.40;99.90;;;;;;5010269;28;20205;-73
2023/03/13 08:16:25;;;;;;;3.13;1.00;;;13.60;99.90;;;;;;5009712;28;20647;-73
2023/03/13 08:18:53;;;;;;;1.10;0.70;;;13.70;99.90;;;;;;5010237;28;20528;-73
2023/03/13 08:21:24;;;;;;;1.20;0.60;;;13.90;99.90;;;;;;5010464;28;20456;-72
2023/03/13 08:23:55;;;;;;;1.67;0.50;;;14.10;99.90;;;;;;5009899;28;20437;-73
2023/03/13 08:26:23;;;;;;;0.80;0.50;;;14.40;99.90;;;;;;5010934;28;20938;-73
2023/03/13 08:28:56;;;;;;;1.83;0.80;;;14.60;99.90;;;;;;5010023;28;20433;-73
2023/03/13 08:31:24;;;;;;;0.80;0.60;;;14.80;99.90;;;;;;5010802;28;20471;-72
2023/03/13 08:33:50;;;;;;;0.93;0.60;;;14.90;99.90;;;;;;5009870;28;20934;-72
2023/03/13 08:36:23;;;;;;;1.10;0.70;;;14.90;99.90;;;;;;4995951;28;20526;-72
2023/03/13 08:38:50;;;;;;;4.90;0.60;;;15.00;99.90;;;;;;5002671;28;20183;-72
2023/03/13 08:41:18;;;;;;;1.80;0.60;;;15.00;99.90;;;;;;5007544;28;20442;-73
2023/03/13 08:43:45;;;;;;;1.37;0.70;;;15.00;99.90;;;;;;5009826;28;20453;-72
2023/03/13 08:46:11;;;;;;;1.37;0.80;;;15.00;99.90;;;;;;5010572;28;20427;-72
2023/03/13 08:48:36;;;;;;;1.70;0.50;;;15.00;99.90;;;;;;5011198;28;20436;-73
2023/03/13 08:51:14;;;;;;;1.57;0.70;;;14.90;99.90;;;;;;5013882;28;20445;-72
2023/03/13 08:53:41;;;;;;;32.97;0.90;;;14.90;99.90;;;;;;5011992;28;20210;-72
2023/03/13 08:56:12;;;;;;;7.33;0.80;;;14.90;99.90;;;;;;5008068;28;20476;-72
2023/03/13 08:58:38;;;;;;;3.27;0.70;;;14.90;99.90;;;;;;5013602;28;20428;-72
2023/03/13 09:01:09;;;;;;;8.13;0.70;;;14.80;99.90;;;;;;5013760;28;20445;-72
2023/03/13 09:03:35;;;;;;;5.50;0.70;;;14.80;99.90;;;;;;5012091;28;20221;-73
2023/03/13 09:06:02;;;;;;;6.27;0.90;;;15.00;99.90;;;;;;5013884;28;20485;-72
2023/03/13 09:08:29;;;;;;;3.17;0.63;;;14.90;99.90;;;;;;5013794;28;20429;-72
2023/03/13 09:10:59;;;;;;;1.40;0.60;;;15.00;99.90;;;;;;4997837;28;20524;-72
2023/03/13 09:13:26;;;;;;;1.60;0.67;;;14.90;99.90;;;;;;5013696;28;20465;-73
2023/03/13 09:15:55;;;;;;;1.53;0.80;;;14.90;99.90;;;;;;5005375;28;20425;-73
2023/03/13 09:18:20;;;;;;;2.80;0.63;;;14.90;99.90;;;;;;5013706;28;20516;-74
2023/03/13 09:20:46;;;;;;;4.77;1.40;;;14.90;99.90;;;;;;5012847;28;20944;-73
2023/03/13 09:23:11;;;;;;;0.93;0.53;;;14.90;99.90;;;;;;5013464;28;20316;-73
2023/03/13 09:25:37;;;;;;;1.30;0.60;;;15.00;99.90;;;;;;5013149;28;20198;-72
2023/03/13 09:28:03;;;;;;;4.27;0.77;;;15.10;99.90;;;;;;5013421;28;20361;-73
2023/03/13 09:30:29;;;;;;;1.30;0.60;;;15.30;99.90;;;;;;5005126;28;20559;-72
2023/03/13 09:32:54;;;;;;;3.03;0.60;;;15.60;99.90;;;;;;5012977;28;20213;-71
2023/03/13 09:35:20;;;;;;;2.80;0.93;;;15.70;99.90;;;;;;5013522;28;20269;-72
2023/03/13 09:37:45;;;;;;;3.63;0.70;;;15.50;99.90;;;;;;5012692;28;20651;-72
2023/03/13 09:40:16;;;;;;;3.23;0.83;;;15.50;99.90;;;;;;5013348;28;20190;-73
2023/03/13 09:42:50;;;;;;;2.50;0.97;;;15.50;99.90;;;;;;5012295;28;20218;-73
2023/03/13 09:45:41;;;;;;;4.13;1.43;;;15.60;99.90;;;;;;5012020;28;20429;-73
2023/03/13 09:48:23;;;;;;;7.53;0.80;;;15.70;99.90;;;;;;5000960;28;20502;-73
2023/03/13 09:51:00;;;;;;;1.70;0.80;;;15.80;99.90;;;;;;5012282;28;20482;-73
2023/03/13 09:53:54;;;;;;;1.50;0.60;;;16.00;99.90;;;;;;5013000;28;20465;-73
2023/03/13 09:56:25;;;;;;;4.97;1.03;;;16.30;99.90;;;;;;5001853;28;20437;-72
2023/03/13 09:58:58;;;;;;;2.23;0.70;;;16.80;99.90;;;;;;5012437;28;20429;-73
2023/03/13 10:01:34;;;;;;;1.80;1.10;;;17.40;99.90;;;;;;5012705;28;20549;-72
2023/03/13 10:04:08;;;;;;;1.37;0.80;;;17.60;99.90;;;;;;4998704;28;20543;-73
2023/03/13 10:06:40;;;;;;;2.60;0.90;;;17.70;99.90;;;;;;5012630;28;20473;-73
2023/03/13 10:09:19;;;;;;;142.07;59.60;;;17.50;99.90;;;;;;5012928;28;20417;-73
2023/03/13 10:12:22;;;;;;;2.57;1.13;;;17.40;99.90;;;;;;5012120;28;20445;-73
2023/03/13 10:15:06;;;;;;;4.67;1.00;;;17.50;99.90;;;;;;5012149;28;20464;-72
2023/03/13 10:17:38;;;;;;;2.83;1.00;;;17.70;99.90;;;;;;5009016;28;20418;-73
2023/03/13 10:20:09;;;;;;;3.97;1.27;;;18.30;99.90;;;;;;5012840;28;20421;-73
2023/03/13 10:22:36;;;;;;;3.43;0.90;;;19.00;99.90;;;;;;5011839;28;20451;-73
2023/03/13 10:25:05;;;;;;;1.50;0.70;;;19.40;99.90;;;;;;5012859;28;20584;-73
2023/03/13 10:27:31;;;;;;;2.03;0.97;;;19.90;99.90;;;;;;5012265;28;20460;-73
2023/03/13 10:29:56;;;;;;;16.13;1.27;;;20.50;99.90;;;;;;5012340;28;20430;-73
2023/03/13 10:32:22;;;;;;;3.93;1.30;;;20.70;99.90;;;;;;5012138;28;20275;-73
2023/03/13 10:35:02;;;;;;;3.67;0.90;;;20.60;99.90;;;;;;5011888;28;20218;-72
2023/03/13 10:37:39;;;;;;;165.03;12.83;;;19.90;99.90;;;;;;5012396;28;20195;-73
2023/03/13 10:40:23;;;;;;;2.03;0.90;;;19.30;99.90;;;;;;4997509;28;20417;-72
2023/03/13 10:42:50;;;;;;;2.33;0.80;;;19.10;99.90;;;;;;5010026;28;20434;-73
2023/03/13 10:45:19;;;;;;;4.63;0.67;;;18.90;99.90;;;;;;5013128;28;21148;-73
2023/03/13 10:47:52;;;;;;;1.20;0.90;;;18.80;99.90;;;;;;5004875;28;20473;-73
2023/03/13 10:50:21;;;;;;;0.87;0.80;;;18.50;99.90;;;;;;5012694;28;20520;-73
2023/03/13 10:52:48;;;;;;;1.80;0.80;;;18.50;99.90;;;;;;5009769;28;20430;-74
2023/03/13 10:55:23;;;;;;;3.03;1.70;;;18.40;99.90;;;;;;5010969;28;20532;-73
2023/03/13 10:57:51;;;;;;;1.57;0.70;;;18.60;99.90;;;;;;5003441;28;20560;-73
2023/03/13 11:00:35;;;;;;;2.40;1.00;;;19.10;99.90;;;;;;5010645;28;20817;-74
2023/03/13 11:03:26;;;;;;;2.87;1.03;;;19.80;99.90;;;;;;4997336;28;20528;-73
2023/03/13 11:05:58;;;;;;;2.10;1.13;;;20.30;99.90;;;;;;5011447;28;20430;-73
2023/03/13 11:08:26;;;;;;;1.10;1.00;;;20.60;99.90;;;;;;5004490;28;20434;-74
2023/03/13 11:11:00;;;;;;;1.37;1.00;;;20.40;99.90;;;;;;5010016;28;21198;-73
2023/03/13 11:13:41;;;;;;;2.47;1.43;;;20.00;99.90;;;;;;5011680;28;21018;-74
2023/03/13 11:16:10;;;;;;;8.17;1.40;;;19.60;99.90;;;;;;4999370;28;20426;-74
2023/03/13 11:18:56;;;;;;;1.47;0.90;;;19.40;99.90;;;;;;5011627;28;20509;-74
2023/03/13 11:21:41;;;;;;;1.10;1.00;;;19.20;99.90;;;;;;5011745;28;20809;-75
2023/03/13 11:24:27;;;;;;;3.20;1.23;;;19.40;99.90;;;;;;4999013;28;20418;-73
2023/03/13 11:27:18;;;;;;;4.20;1.27;;;19.60;99.90;;;;;;5010953;28;20425;-73
2023/03/13 11:30:13;;;;;;;10.90;1.30;;;19.90;99.90;;;;;;5010958;28;20493;-72
2023/03/13 11:32:52;;;;;;;5.60;1.07;;;20.60;99.90;;;;;;5007366;28;20468;-71
2023/03/13 11:35:21;;;;;;;2.33;1.00;;;21.60;99.90;;;;;;5010236;28;20448;-71
2023/03/13 11:37:51;;;;;;;2.30;0.90;;;21.70;99.90;;;;;;5010607;28;20465;-70
2023/03/13 11:40:21;;;;;;;3.30;1.10;;;21.60;99.90;;;;;;5011143;28;20841;-71
2023/03/13 11:43:18;;;;;;;221.03;28.30;;;21.60;99.90;;;;;;5010202;28;20930;-70
2023/03/13 11:45:49;;;;;;;2.90;0.90;;;21.60;99.90;;;;;;5010754;28;20422;-72
2023/03/13 11:48:33;;;;;;;7.20;1.30;;;21.60;99.90;;;;;;5003995;28;20439;-75
2023/03/13 11:51:12;;;;;;;1.00;0.90;;;21.80;99.90;;;;;;4995912;28;20528;-74
2023/03/13 11:53:37;;;;;;;2.63;0.70;;;21.90;99.90;;;;;;5010381;28;20472;-74
2023/03/13 11:56:14;;;;;;;4.77;1.20;;;21.90;99.90;;;;;;5010940;28;20426;-73
2023/03/13 11:58:54;;;;;;;166.90;37.20;;;21.70;99.90;;;;;;5010352;28;20272;-74
2023/03/13 12:01:28;;;;;;;2.80;1.20;;;21.60;99.90;;;;;;5011121;28;20528;-70
2023/03/13 12:04:47;;;;;;;4.90;1.00;;;21.60;99.90;;;;;;5010704;28;20454;-70
2023/03/13 12:07:34;;;;;;;4.30;1.00;;;21.60;99.90;;;;;;4980887;28;20572;-69
2023/03/13 12:10:08;;;;;;;2.40;1.10;;;21.30;99.90;;;;;;4996161;28;20937;-70
2023/03/13 12:12:40;;;;;;;1.87;0.80;;;20.80;99.90;;;;;;5010043;28;20527;-73
2023/03/13 12:15:30;;;;;;;1.40;0.73;;;20.70;99.90;;;;;;5006116;28;20427;-72
2023/03/13 12:18:21;;;;;;;1.20;0.83;;;20.70;99.90;;;;;;4986986;28;20433;-72
2023/03/13 12:21:13;;;;;;;2.63;1.10;;;20.90;99.90;;;;;;5010060;28;20446;-72
2023/03/13 12:23:40;;;;;;;1.23;1.00;;;20.70;99.90;;;;;;5011537;28;20478;-72
2023/03/13 12:26:11;;;;;;;3.90;1.00;;;20.70;99.90;;;;;;5014899;28;20791;-73
2023/03/13 12:29:05;;;;;;;1.00;0.63;;;20.70;99.90;;;;;;5014088;28;20780;-73
2023/03/13 12:31:35;;;;;;;3.63;0.80;;;20.60;99.90;;;;;;5013967;28;20465;-74
2023/03/13 12:34:33;;;;;;;3.20;0.80;;;20.70;99.90;;;;;;5014384;28;20468;-74
2023/03/13 12:37:25;;;;;;;2.67;0.90;;;20.80;99.90;;;;;;4999561;28;20426;-74
2023/03/13 12:40:00;;;;;;;1.23;0.70;;;20.80;99.90;;;;;;5014026;28;20433;-74
2023/03/13 12:42:53;;;;;;;2.60;0.90;;;21.10;99.90;;;;;;5006661;28;20857;-74
2023/03/13 12:45:23;;;;;;;2.80;1.10;;;21.20;99.90;;;;;;5005141;28;20495;-74
2023/03/13 12:48:11;;;;;;;1.47;0.77;;;21.30;99.90;;;;;;5013799;28;20439;-74
2023/03/13 12:50:59;;;;;;;2.37;1.10;;;21.50;99.90;;;;;;5013945;28;20795;-74
2023/03/13 12:54:02;;;;;;;2.37;0.70;;;21.60;99.90;;;;;;5014215;28;20542;-74
2023/03/13 12:57:02;;;;;;;1.30;0.80;;;21.70;99.90;;;;;;5007286;28;20417;-74
2023/03/13 12:59:34;;;;;;;6.30;0.90;;;21.80;99.90;;;;;;5007036;28;20439;-74
2023/03/13 13:02:02;;;;;;;5.23;1.27;;;21.60;99.90;;;;;;5006457;28;20524;-73
2023/03/13 13:04:31;;;;;;;4.10;0.90;;;21.70;99.90;;;;;;5014052;28;20473;-73
2023/03/13 13:07:04;;;;;;;1.63;0.87;;;21.60;99.90;;;;;;4998401;28;20491;-73
2023/03/13 13:09:34;;;;;;;4.37;0.90;;;21.50;99.90;;;;;;5013599;28;20479;-73
2023/03/13 13:12:19;;;;;;;3.57;0.80;;;21.50;99.90;;;;;;4994014;28;20469;-73
2023/03/13 13:14:47;;;;;;;2.07;0.90;;;21.50;99.90;;;;;;5012174;28;21062;-74
2023/03/13 13:17:37;;;;;;;3.73;0.80;;;21.20;99.90;;;;;;5013986;28;20464;-73
2023/03/13 13:20:33;;;;;;;3.97;0.70;;;21.30;99.90;;;;;;5000265;28;20433;-73
2023/03/13 13:23:20;;;;;;;1.57;0.80;;;21.20;99.90;;;;;;4998103;28;20433;-74
2023/03/13 13:25:46;;;;;;;1.10;0.60;;;21.20;99.90;;;;;;5010220;28;20781;-72
2023/03/13 13:28:21;;;;;;;3.67;0.90;;;21.10;99.90;;;;;;5013574;28;20432;-72
2023/03/13 13:30:47;;;;;;;2.70;0.60;;;21.10;99.90;;;;;;4996843;28;20823;-73
2023/03/13 13:33:27;;;;;;;15.20;0.90;;;21.10;99.90;;;;;;5013039;28;20473;-72
2023/03/13 13:36:08;;;;;;;1999.90;999.90;;;21.20;99.90;;;;;;5012529;28;20434;-73
2023/03/13 13:38:38;;;;;;;1999.90;999.90;;;21.10;99.90;;;;;;5012876;28;20437;-73
2023/03/13 13:41:20;;;;;;;1999.90;999.90;;;21.00;99.90;;;;;;5012735;28;20453;-73
2023/03/13 13:44:23;;;;;;;1999.90;999.90;;;21.00;99.90;;;;;;5012518;28;20445;-72
2023/03/13 13:46:49;;;;;;;1999.90;999.90;;;21.10;99.90;;;;;;5012539;28;20421;-70
2023/03/13 13:49:24;;;;;;;1999.90;999.90;;;21.10;99.90;;;;;;5011499;28;20829;-71
2023/03/13 13:52:02;;;;;;;1999.90;999.90;;;21.00;99.90;;;;;;5011137;28;20691;-72
2023/03/13 13:54:32;;;;;;;1999.90;999.90;;;21.00;99.90;;;;;;5012986;28;20543;-72
2023/03/13 13:57:30;;;;;;;1999.90;999.90;;;21.00;99.90;;;;;;4997288;28;20421;-72
2023/03/13 14:00:23;;;;;;;1999.90;999.90;;;21.00;99.90;;;;;;5008806;28;20479;-71
2023/03/13 14:02:54;;;;;;;1999.90;999.90;;;21.00;99.90;;;;;;5011831;28;20457;-71
2023/03/13 14:05:32;;;;;;;1999.90;999.90;;;21.00;99.90;;;;;;5012874;28;20758;-71
2023/03/13 14:08:07;;;;;;;1999.90;999.90;;;21.00;99.90;;;;;;4997267;28;20421;-72
2023/03/13 14:10:38;;;;;;;1999.90;999.90;;;21.00;99.90;;;;;;5012427;28;20440;-71
2023/03/13 14:13:30;;;;;;;1999.90;999.90;;;21.10;99.90;;;;;;5012394;28;20874;-71
2023/03/13 14:15:56;;;;;;;1999.90;999.90;;;21.00;99.90;;;;;;5009830;28;20430;-72
2023/03/13 14:18:25;;;;;;;1999.90;999.90;;;21.00;99.90;;;;;;5012542;28;20441;-72
2023/03/13 14:20:56;;;;;;;432.43;169.00;;;21.10;99.90;;;;;;5011555;28;20290;-71
2023/03/13 14:23:43;;;;;;;1999.90;999.90;;;21.10;99.90;;;;;;5012350;28;20418;-71
2023/03/13 14:26:16;;;;;;;171.40;113.67;;;21.00;99.90;;;;;;5000132;28;20441;-71
2023/03/13 14:28:54;;;;;;;1999.90;999.90;;;21.10;99.90;;;;;;5011802;28;20960;-71
2023/03/13 14:31:31;;;;;;;1999.90;999.90;;;21.10;99.90;;;;;;5011853;28;20472;-71